sensor_id;sensor_type;location;lat;lon;timestamp;P1;durP1;ratioP1;P2;durP2;ratioP2
55300;SDS011;58302;51.446;-2.000;2023-12-29T00:01:19;13.48;;;3.88;;
55300;SDS011;58302;51.446;-2.000;2023-12-29T00:03:45;11.15;;;3.33;;
55300;SDS011;58302;51.446;-2.000;2023-12-29T00:06:10;14.80;;;3.53;;
55300;SDS011;58302;51.446;-2.000;2023-12-29T00:08:37;6.95;;;3.13;;
55300;SDS011;58302;51.446;-2.000;2023-12-29T00:11:03;18.65;;;3.40;;
55300;SDS011;58302;51.446;-2.000;2023-12-29T00:13:30;12.98;;;4.15;;
55300;SDS011;58302;51.446;-2.000;2023-12-29T00:15:56;12.88;;;3.53;;
55300;SDS011;58302;51.446;-2.000;2023-12-29T00:18:22;19.73;;;4.75;;
55300;SDS011;58302;51.446;-2.000;2023-12-29T00:20:49;10.90;;;4.78;;
55300;SDS011;58302;51.446;-2.000;2023-12-29T00:23:15;18.77;;;4.20;;
55300;SDS011;58302;51.446;-2.000;2023-12-29T00:25:40;8.15;;;2.95;;
55300;SDS011;58302;51.446;-2.000;2023-12-29T00:28:06;20.35;;;4.65;;
55300;SDS011;58302;51.446;-2.000;2023-12-29T00:30:32;13.25;;;3.00;;
55300;SDS011;58302;51.446;-2.000;2023-12-29T00:32:58;15.73;;;3.72;;
55300;SDS011;58302;51.446;-2.000;2023-12-29T00:35:24;14.55;;;5.65;;
55300;SDS011;58302;51.446;-2.000;2023-12-29T00:37:50;11.10;;;4.28;;
55300;SDS011;58302;51.446;-2.000;2023-12-29T00:40:16;11.15;;;2.90;;
55300;SDS011;58302;51.446;-2.000;2023-12-29T00:42:43;20.92;;;4.75;;
55300;SDS011;58302;51.446;-2.000;2023-12-29T00:45:09;9.10;;;3.60;;
55300;SDS011;58302;51.446;-2.000;2023-12-29T00:47:35;14.85;;;3.67;;
55300;SDS011;58302;51.446;-2.000;2023-12-29T00:50:01;9.02;;;3.50;;
55300;SDS011;58302;51.446;-2.000;2023-12-29T00:52:27;13.68;;;4.15;;
55300;SDS011;58302;51.446;-2.000;2023-12-29T00:54:54;11.45;;;3.15;;
55300;SDS011;58302;51.446;-2.000;2023-12-29T00:57:20;13.85;;;4.65;;
55300;SDS011;58302;51.446;-2.000;2023-12-29T00:59:46;12.23;;;3.30;;
55300;SDS011;58302;51.446;-2.000;2023-12-29T01:02:12;15.55;;;3.65;;
55300;SDS011;58302;51.446;-2.000;2023-12-29T01:04:39;8.80;;;3.47;;
55300;SDS011;58302;51.446;-2.000;2023-12-29T01:07:05;17.65;;;3.20;;
55300;SDS011;58302;51.446;-2.000;2023-12-29T01:09:36;13.77;;;4.88;;
55300;SDS011;58302;51.446;-2.000;2023-12-29T01:12:04;13.65;;;3.80;;
55300;SDS011;58302;51.446;-2.000;2023-12-29T01:14:30;12.52;;;3.30;;
55300;SDS011;58302;51.446;-2.000;2023-12-29T01:16:56;13.13;;;3.85;;
55300;SDS011;58302;51.446;-2.000;2023-12-29T01:19:22;12.98;;;3.50;;
55300;SDS011;58302;51.446;-2.000;2023-12-29T01:21:48;13.32;;;2.85;;
55300;SDS011;58302;51.446;-2.000;2023-12-29T01:24:14;13.02;;;4.00;;
55300;SDS011;58302;51.446;-2.000;2023-12-29T01:26:40;15.60;;;4.60;;
55300;SDS011;58302;51.446;-2.000;2023-12-29T01:29:06;12.27;;;3.95;;
55300;SDS011;58302;51.446;-2.000;2023-12-29T01:31:32;18.65;;;3.45;;
55300;SDS011;58302;51.446;-2.000;2023-12-29T01:33:58;16.38;;;4.55;;
55300;SDS011;58302;51.446;-2.000;2023-12-29T01:36:24;13.77;;;3.20;;
55300;SDS011;58302;51.446;-2.000;2023-12-29T01:38:50;15.50;;;4.60;;
55300;SDS011;58302;51.446;-2.000;2023-12-29T01:41:19;10.05;;;3.30;;
55300;SDS011;58302;51.446;-2.000;2023-12-29T01:44:14;14.40;;;3.85;;
55300;SDS011;58302;51.446;-2.000;2023-12-29T01:46:45;6.28;;;2.45;;
55300;SDS011;58302;51.446;-2.000;2023-12-29T01:49:13;15.93;;;4.60;;
55300;SDS011;58302;51.446;-2.000;2023-12-29T01:51:42;17.10;;;4.10;;
55300;SDS011;58302;51.446;-2.000;2023-12-29T01:54:10;9.85;;;3.60;;
55300;SDS011;58302;51.446;-2.000;2023-12-29T01:56:39;12.57;;;3.92;;
55300;SDS011;58302;51.446;-2.000;2023-12-29T01:59:06;16.52;;;4.25;;
55300;SDS011;58302;51.446;-2.000;2023-12-29T02:01:32;10.10;;;3.88;;
55300;SDS011;58302;51.446;-2.000;2023-12-29T02:04:00;7.57;;;2.80;;
55300;SDS011;58302;51.446;-2.000;2023-12-29T02:06:26;22.27;;;4.05;;
55300;SDS011;58302;51.446;-2.000;2023-12-29T02:08:53;13.18;;;3.75;;
55300;SDS011;58302;51.446;-2.000;2023-12-29T02:11:19;19.45;;;5.45;;
55300;SDS011;58302;51.446;-2.000;2023-12-29T02:13:46;14.35;;;3.13;;
55300;SDS011;58302;51.446;-2.000;2023-12-29T02:19:25;10.60;;;3.80;;
55300;SDS011;58302;51.446;-2.000;2023-12-29T02:22:04;12.05;;;4.72;;
55300;SDS011;58302;51.446;-2.000;2023-12-29T02:24:32;10.05;;;2.38;;
55300;SDS011;58302;51.446;-2.000;2023-12-29T02:27:05;14.45;;;3.75;;
55300;SDS011;58302;51.446;-2.000;2023-12-29T02:29:38;19.42;;;3.10;;
55300;SDS011;58302;51.446;-2.000;2023-12-29T02:32:10;13.63;;;2.75;;
55300;SDS011;58302;51.446;-2.000;2023-12-29T02:34:39;16.30;;;4.35;;
55300;SDS011;58302;51.446;-2.000;2023-12-29T02:37:07;8.93;;;2.97;;
55300;SDS011;58302;51.446;-2.000;2023-12-29T02:39:34;8.05;;;3.45;;
55300;SDS011;58302;51.446;-2.000;2023-12-29T02:42:00;8.35;;;3.20;;
55300;SDS011;58302;51.446;-2.000;2023-12-29T02:44:26;10.00;;;3.13;;
55300;SDS011;58302;51.446;-2.000;2023-12-29T02:46:52;7.72;;;2.95;;
55300;SDS011;58302;51.446;-2.000;2023-12-29T02:49:18;9.00;;;2.97;;
55300;SDS011;58302;51.446;-2.000;2023-12-29T02:51:44;11.18;;;2.45;;
55300;SDS011;58302;51.446;-2.000;2023-12-29T02:54:11;9.38;;;2.03;;
55300;SDS011;58302;51.446;-2.000;2023-12-29T02:56:37;10.13;;;3.00;;
55300;SDS011;58302;51.446;-2.000;2023-12-29T02:59:03;7.75;;;2.92;;
55300;SDS011;58302;51.446;-2.000;2023-12-29T03:01:29;9.40;;;2.58;;
55300;SDS011;58302;51.446;-2.000;2023-12-29T03:03:55;8.00;;;2.40;;
55300;SDS011;58302;51.446;-2.000;2023-12-29T03:06:22;5.13;;;1.52;;
55300;SDS011;58302;51.446;-2.000;2023-12-29T03:08:48;8.88;;;1.92;;
55300;SDS011;58302;51.446;-2.000;2023-12-29T03:11:13;9.63;;;2.10;;
55300;SDS011;58302;51.446;-2.000;2023-12-29T03:13:39;11.98;;;2.55;;
55300;SDS011;58302;51.446;-2.000;2023-12-29T03:16:06;10.18;;;3.92;;
55300;SDS011;58302;51.446;-2.000;2023-12-29T03:18:32;12.65;;;3.10;;
55300;SDS011;58302;51.446;-2.000;2023-12-29T03:20:58;17.67;;;3.85;;
55300;SDS011;58302;51.446;-2.000;2023-12-29T03:23:23;17.20;;;3.95;;
55300;SDS011;58302;51.446;-2.000;2023-12-29T03:25:50;11.10;;;2.40;;
55300;SDS011;58302;51.446;-2.000;2023-12-29T03:28:17;13.15;;;3.97;;
55300;SDS011;58302;51.446;-2.000;2023-12-29T03:30:44;10.60;;;3.28;;
55300;SDS011;58302;51.446;-2.000;2023-12-29T03:33:10;18.42;;;3.90;;
55300;SDS011;58302;51.446;-2.000;2023-12-29T03:35:36;12.57;;;3.95;;
55300;SDS011;58302;51.446;-2.000;2023-12-29T03:38:02;14.07;;;3.25;;
55300;SDS011;58302;51.446;-2.000;2023-12-29T03:40:28;7.18;;;3.33;;
55300;SDS011;58302;51.446;-2.000;2023-12-29T03:42:54;11.27;;;2.78;;
55300;SDS011;58302;51.446;-2.000;2023-12-29T03:45:20;12.73;;;3.75;;
55300;SDS011;58302;51.446;-2.000;2023-12-29T03:47:46;11.45;;;3.25;;
55300;SDS011;58302;51.446;-2.000;2023-12-29T03:50:12;10.45;;;2.75;;
55300;SDS011;58302;51.446;-2.000;2023-12-29T03:52:38;11.45;;;3.53;;
55300;SDS011;58302;51.446;-2.000;2023-12-29T03:55:04;21.90;;;3.40;;
55300;SDS011;58302;51.446;-2.000;2023-12-29T03:57:31;10.20;;;3.15;;
55300;SDS011;58302;51.446;-2.000;2023-12-29T03:59:57;8.43;;;2.72;;
55300;SDS011;58302;51.446;-2.000;2023-12-29T04:02:23;7.82;;;2.70;;
55300;SDS011;58302;51.446;-2.000;2023-12-29T04:04:49;12.82;;;3.20;;
55300;SDS011;58302;51.446;-2.000;2023-12-29T04:07:15;14.07;;;3.25;;
55300;SDS011;58302;51.446;-2.000;2023-12-29T04:09:41;14.50;;;3.30;;
55300;SDS011;58302;51.446;-2.000;2023-12-29T04:12:07;7.80;;;1.98;;
55300;SDS011;58302;51.446;-2.000;2023-12-29T04:14:33;14.07;;;2.72;;
55300;SDS011;58302;51.446;-2.000;2023-12-29T04:16:59;7.95;;;2.80;;
55300;SDS011;58302;51.446;-2.000;2023-12-29T04:19:28;7.65;;;3.00;;
55300;SDS011;58302;51.446;-2.000;2023-12-29T04:21:54;11.10;;;3.33;;
55300;SDS011;58302;51.446;-2.000;2023-12-29T04:24:20;6.60;;;2.40;;
55300;SDS011;58302;51.446;-2.000;2023-12-29T04:26:46;19.08;;;3.25;;
55300;SDS011;58302;51.446;-2.000;2023-12-29T04:29:12;9.30;;;3.00;;
55300;SDS011;58302;51.446;-2.000;2023-12-29T04:31:38;12.88;;;2.47;;
55300;SDS011;58302;51.446;-2.000;2023-12-29T04:34:04;11.35;;;2.72;;
55300;SDS011;58302;51.446;-2.000;2023-12-29T04:36:30;7.82;;;2.45;;
55300;SDS011;58302;51.446;-2.000;2023-12-29T04:38:56;9.65;;;2.53;;
55300;SDS011;58302;51.446;-2.000;2023-12-29T04:41:22;10.02;;;2.45;;
55300;SDS011;58302;51.446;-2.000;2023-12-29T04:43:48;14.43;;;3.00;;
55300;SDS011;58302;51.446;-2.000;2023-12-29T04:46:15;15.05;;;2.83;;
55300;SDS011;58302;51.446;-2.000;2023-12-29T04:48:42;5.53;;;2.38;;
55300;SDS011;58302;51.446;-2.000;2023-12-29T04:51:09;10.20;;;2.72;;
55300;SDS011;58302;51.446;-2.000;2023-12-29T04:53:35;9.93;;;2.90;;
55300;SDS011;58302;51.446;-2.000;2023-12-29T04:56:01;10.38;;;2.58;;
55300;SDS011;58302;51.446;-2.000;2023-12-29T04:58:27;7.45;;;2.25;;
55300;SDS011;58302;51.446;-2.000;2023-12-29T05:00:53;9.52;;;2.38;;
55300;SDS011;58302;51.446;-2.000;2023-12-29T05:03:19;10.73;;;2.55;;
55300;SDS011;58302;51.446;-2.000;2023-12-29T05:05:45;11.40;;;2.40;;
55300;SDS011;58302;51.446;-2.000;2023-12-29T05:08:11;7.63;;;3.30;;
55300;SDS011;58302;51.446;-2.000;2023-12-29T05:10:37;7.13;;;1.85;;
55300;SDS011;58302;51.446;-2.000;2023-12-29T05:13:03;7.93;;;2.42;;
55300;SDS011;58302;51.446;-2.000;2023-12-29T05:15:29;5.50;;;2.05;;
55300;SDS011;58302;51.446;-2.000;2023-12-29T05:17:55;6.82;;;1.50;;
55300;SDS011;58302;51.446;-2.000;2023-12-29T05:20:21;9.00;;;2.45;;
55300;SDS011;58302;51.446;-2.000;2023-12-29T05:22:47;5.85;;;1.45;;
55300;SDS011;58302;51.446;-2.000;2023-12-29T05:27:43;4.65;;;1.63;;
55300;SDS011;58302;51.446;-2.000;2023-12-29T05:30:10;6.43;;;1.63;;
55300;SDS011;58302;51.446;-2.000;2023-12-29T05:32:36;6.60;;;1.92;;
55300;SDS011;58302;51.446;-2.000;2023-12-29T05:35:02;5.13;;;1.52;;
55300;SDS011;58302;51.446;-2.000;2023-12-29T05:37:28;3.13;;;2.05;;
55300;SDS011;58302;51.446;-2.000;2023-12-29T05:39:54;3.65;;;2.17;;
55300;SDS011;58302;51.446;-2.000;2023-12-29T05:42:20;5.78;;;1.60;;
55300;SDS011;58302;51.446;-2.000;2023-12-29T05:44:46;11.70;;;1.85;;
55300;SDS011;58302;51.446;-2.000;2023-12-29T05:47:12;4.72;;;1.58;;
55300;SDS011;58302;51.446;-2.000;2023-12-29T05:49:38;8.65;;;2.33;;
55300;SDS011;58302;51.446;-2.000;2023-12-29T05:52:05;3.47;;;1.83;;
55300;SDS011;58302;51.446;-2.000;2023-12-29T05:54:31;2.22;;;1.20;;
55300;SDS011;58302;51.446;-2.000;2023-12-29T05:56:58;8.80;;;2.80;;
55300;SDS011;58302;51.446;-2.000;2023-12-29T05:59:24;3.10;;;1.88;;
55300;SDS011;58302;51.446;-2.000;2023-12-29T06:01:50;6.32;;;1.95;;
55300;SDS011;58302;51.446;-2.000;2023-12-29T06:04:16;5.85;;;1.55;;
55300;SDS011;58302;51.446;-2.000;2023-12-29T06:09:16;2.78;;;1.60;;
55300;SDS011;58302;51.446;-2.000;2023-12-29T06:11:42;4.05;;;1.50;;
55300;SDS011;58302;51.446;-2.000;2023-12-29T06:14:08;8.20;;;2.20;;
55300;SDS011;58302;51.446;-2.000;2023-12-29T06:16:34;3.30;;;1.20;;
55300;SDS011;58302;51.446;-2.000;2023-12-29T06:19:00;4.28;;;1.30;;
55300;SDS011;58302;51.446;-2.000;2023-12-29T06:21:26;4.40;;;2.00;;
55300;SDS011;58302;51.446;-2.000;2023-12-29T06:23:52;4.18;;;2.83;;
55300;SDS011;58302;51.446;-2.000;2023-12-29T06:26:18;5.88;;;2.55;;
55300;SDS011;58302;51.446;-2.000;2023-12-29T06:28:46;5.25;;;1.33;;
55300;SDS011;58302;51.446;-2.000;2023-12-29T06:31:12;2.60;;;0.85;;
55300;SDS011;58302;51.446;-2.000;2023-12-29T06:33:44;5.57;;;1.52;;
55300;SDS011;58302;51.446;-2.000;2023-12-29T06:36:11;3.65;;;1.40;;
55300;SDS011;58302;51.446;-2.000;2023-12-29T06:38:37;3.08;;;1.60;;
55300;SDS011;58302;51.446;-2.000;2023-12-29T06:41:04;4.55;;;2.97;;
55300;SDS011;58302;51.446;-2.000;2023-12-29T06:43:31;7.75;;;2.28;;
55300;SDS011;58302;51.446;-2.000;2023-12-29T06:45:57;6.55;;;1.60;;
55300;SDS011;58302;51.446;-2.000;2023-12-29T06:48:23;6.15;;;1.70;;
55300;SDS011;58302;51.446;-2.000;2023-12-29T06:50:49;5.10;;;1.98;;
55300;SDS011;58302;51.446;-2.000;2023-12-29T06:53:15;2.47;;;1.27;;
55300;SDS011;58302;51.446;-2.000;2023-12-29T06:55:41;8.30;;;2.17;;
55300;SDS011;58302;51.446;-2.000;2023-12-29T06:58:07;7.75;;;2.33;;
55300;SDS011;58302;51.446;-2.000;2023-12-29T07:00:33;6.30;;;1.80;;
55300;SDS011;58302;51.446;-2.000;2023-12-29T07:03:02;7.82;;;1.73;;
55300;SDS011;58302;51.446;-2.000;2023-12-29T07:05:28;7.25;;;2.13;;
55300;SDS011;58302;51.446;-2.000;2023-12-29T07:07:54;8.13;;;2.00;;
55300;SDS011;58302;51.446;-2.000;2023-12-29T07:10:20;6.75;;;1.70;;
55300;SDS011;58302;51.446;-2.000;2023-12-29T07:12:46;6.00;;;1.73;;
55300;SDS011;58302;51.446;-2.000;2023-12-29T07:15:12;7.45;;;2.25;;
55300;SDS011;58302;51.446;-2.000;2023-12-29T07:17:39;6.03;;;2.33;;
55300;SDS011;58302;51.446;-2.000;2023-12-29T07:20:06;4.60;;;1.83;;
55300;SDS011;58302;51.446;-2.000;2023-12-29T07:22:32;7.75;;;1.92;;
55300;SDS011;58302;51.446;-2.000;2023-12-29T07:24:58;7.03;;;2.28;;
55300;SDS011;58302;51.446;-2.000;2023-12-29T07:27:24;14.13;;;1.98;;
55300;SDS011;58302;51.446;-2.000;2023-12-29T07:29:50;6.68;;;1.65;;
55300;SDS011;58302;51.446;-2.000;2023-12-29T07:32:16;8.63;;;2.13;;
55300;SDS011;58302;51.446;-2.000;2023-12-29T07:34:43;10.80;;;2.85;;
55300;SDS011;58302;51.446;-2.000;2023-12-29T07:37:10;7.20;;;2.38;;
55300;SDS011;58302;51.446;-2.000;2023-12-29T07:39:36;17.42;;;2.88;;
55300;SDS011;58302;51.446;-2.000;2023-12-29T07:42:03;8.93;;;1.63;;
55300;SDS011;58302;51.446;-2.000;2023-12-29T07:44:29;6.30;;;2.30;;
55300;SDS011;58302;51.446;-2.000;2023-12-29T07:46:56;3.35;;;2.28;;
55300;SDS011;58302;51.446;-2.000;2023-12-29T07:49:23;4.50;;;1.20;;
55300;SDS011;58302;51.446;-2.000;2023-12-29T07:51:49;4.07;;;1.60;;
55300;SDS011;58302;51.446;-2.000;2023-12-29T07:54:15;11.48;;;2.63;;
55300;SDS011;58302;51.446;-2.000;2023-12-29T07:56:41;7.35;;;1.95;;
55300;SDS011;58302;51.446;-2.000;2023-12-29T07:59:07;13.00;;;2.08;;
55300;SDS011;58302;51.446;-2.000;2023-12-29T08:01:33;6.13;;;2.08;;
55300;SDS011;58302;51.446;-2.000;2023-12-29T08:03:59;10.27;;;2.90;;
55300;SDS011;58302;51.446;-2.000;2023-12-29T08:06:25;7.75;;;2.40;;
55300;SDS011;58302;51.446;-2.000;2023-12-29T08:08:51;4.78;;;1.90;;
55300;SDS011;58302;51.446;-2.000;2023-12-29T08:11:17;11.95;;;2.38;;
55300;SDS011;58302;51.446;-2.000;2023-12-29T08:13:43;7.80;;;1.77;;
55300;SDS011;58302;51.446;-2.000;2023-12-29T08:16:13;10.35;;;2.20;;
55300;SDS011;58302;51.446;-2.000;2023-12-29T08:18:39;9.18;;;3.08;;
55300;SDS011;58302;51.446;-2.000;2023-12-29T08:21:06;5.57;;;2.10;;
55300;SDS011;58302;51.446;-2.000;2023-12-29T08:23:32;8.30;;;2.33;;
55300;SDS011;58302;51.446;-2.000;2023-12-29T08:25:58;10.52;;;2.15;;
55300;SDS011;58302;51.446;-2.000;2023-12-29T08:28:24;9.80;;;2.20;;
55300;SDS011;58302;51.446;-2.000;2023-12-29T08:30:50;5.45;;;1.92;;
55300;SDS011;58302;51.446;-2.000;2023-12-29T08:33:17;7.68;;;2.45;;
55300;SDS011;58302;51.446;-2.000;2023-12-29T08:35:43;7.80;;;1.70;;
55300;SDS011;58302;51.446;-2.000;2023-12-29T08:38:10;6.45;;;2.83;;
55300;SDS011;58302;51.446;-2.000;2023-12-29T08:40:36;3.97;;;1.90;;
55300;SDS011;58302;51.446;-2.000;2023-12-29T08:43:01;8.45;;;1.70;;
55300;SDS011;58302;51.446;-2.000;2023-12-29T08:45:27;8.02;;;2.20;;
55300;SDS011;58302;51.446;-2.000;2023-12-29T08:47:53;5.18;;;1.63;;
55300;SDS011;58302;51.446;-2.000;2023-12-29T08:50:20;3.70;;;1.52;;
55300;SDS011;58302;51.446;-2.000;2023-12-29T08:52:47;9.38;;;1.60;;
55300;SDS011;58302;51.446;-2.000;2023-12-29T08:55:13;8.45;;;1.77;;
55300;SDS011;58302;51.446;-2.000;2023-12-29T08:57:39;6.68;;;1.80;;
55300;SDS011;58302;51.446;-2.000;2023-12-29T09:00:05;7.10;;;2.03;;
55300;SDS011;58302;51.446;-2.000;2023-12-29T09:02:31;12.45;;;2.38;;
55300;SDS011;58302;51.446;-2.000;2023-12-29T09:04:57;3.63;;;1.63;;
55300;SDS011;58302;51.446;-2.000;2023-12-29T09:07:23;10.65;;;1.48;;
55300;SDS011;58302;51.446;-2.000;2023-12-29T09:09:49;8.48;;;2.50;;
55300;SDS011;58302;51.446;-2.000;2023-12-29T09:12:15;6.07;;;1.55;;
55300;SDS011;58302;51.446;-2.000;2023-12-29T09:14:41;13.45;;;2.22;;
55300;SDS011;58302;51.446;-2.000;2023-12-29T09:17:07;4.80;;;1.92;;
55300;SDS011;58302;51.446;-2.000;2023-12-29T09:19:33;3.50;;;1.65;;
55300;SDS011;58302;51.446;-2.000;2023-12-29T09:21:59;9.88;;;1.80;;
55300;SDS011;58302;51.446;-2.000;2023-12-29T09:24:25;5.72;;;1.90;;
55300;SDS011;58302;51.446;-2.000;2023-12-29T09:26:51;9.35;;;2.30;;
55300;SDS011;58302;51.446;-2.000;2023-12-29T09:29:18;5.80;;;1.55;;
55300;SDS011;58302;51.446;-2.000;2023-12-29T09:31:44;5.85;;;2.05;;
55300;SDS011;58302;51.446;-2.000;2023-12-29T09:34:10;7.55;;;3.08;;
55300;SDS011;58302;51.446;-2.000;2023-12-29T09:36:36;5.88;;;1.75;;
55300;SDS011;58302;51.446;-2.000;2023-12-29T09:39:01;8.77;;;1.60;;
55300;SDS011;58302;51.446;-2.000;2023-12-29T09:41:31;6.10;;;2.17;;
55300;SDS011;58302;51.446;-2.000;2023-12-29T09:43:57;4.03;;;1.58;;
55300;SDS011;58302;51.446;-2.000;2023-12-29T09:46:24;6.95;;;1.67;;
55300;SDS011;58302;51.446;-2.000;2023-12-29T09:48:53;3.35;;;1.92;;
55300;SDS011;58302;51.446;-2.000;2023-12-29T09:51:25;8.27;;;2.47;;
55300;SDS011;58302;51.446;-2.000;2023-12-29T09:53:52;5.03;;;1.77;;
55300;SDS011;58302;51.446;-2.000;2023-12-29T09:56:19;4.95;;;1.50;;
55300;SDS011;58302;51.446;-2.000;2023-12-29T09:58:46;3.55;;;1.10;;
55300;SDS011;58302;51.446;-2.000;2023-12-29T10:01:14;3.42;;;1.42;;
55300;SDS011;58302;51.446;-2.000;2023-12-29T10:03:43;8.52;;;1.73;;
55300;SDS011;58302;51.446;-2.000;2023-12-29T10:06:10;1.95;;;0.80;;
55300;SDS011;58302;51.446;-2.000;2023-12-29T10:08:44;5.30;;;1.00;;
55300;SDS011;58302;51.446;-2.000;2023-12-29T10:11:12;5.50;;;1.55;;
55300;SDS011;58302;51.446;-2.000;2023-12-29T10:13:41;1.92;;;0.70;;
55300;SDS011;58302;51.446;-2.000;2023-12-29T10:19:16;1.23;;;0.70;;
55300;SDS011;58302;51.446;-2.000;2023-12-29T10:21:55;1.95;;;0.60;;
55300;SDS011;58302;51.446;-2.000;2023-12-29T10:24:29;0.77;;;0.60;;
55300;SDS011;58302;51.446;-2.000;2023-12-29T10:26:56;4.47;;;1.00;;
55300;SDS011;58302;51.446;-2.000;2023-12-29T10:29:22;3.15;;;1.20;;
55300;SDS011;58302;51.446;-2.000;2023-12-29T10:31:49;5.05;;;1.20;;
55300;SDS011;58302;51.446;-2.000;2023-12-29T10:34:25;1.60;;;1.00;;
55300;SDS011;58302;51.446;-2.000;2023-12-29T10:36:55;2.78;;;1.00;;
55300;SDS011;58302;51.446;-2.000;2023-12-29T10:39:21;2.80;;;1.60;;
55300;SDS011;58302;51.446;-2.000;2023-12-29T10:41:48;2.20;;;1.10;;
55300;SDS011;58302;51.446;-2.000;2023-12-29T10:44:14;1.55;;;1.10;;
55300;SDS011;58302;51.446;-2.000;2023-12-29T10:46:40;2.65;;;1.35;;
55300;SDS011;58302;51.446;-2.000;2023-12-29T10:49:09;4.25;;;0.90;;
55300;SDS011;58302;51.446;-2.000;2023-12-29T10:51:36;3.00;;;1.65;;
55300;SDS011;58302;51.446;-2.000;2023-12-29T10:54:03;6.30;;;2.20;;
55300;SDS011;58302;51.446;-2.000;2023-12-29T10:56:30;5.97;;;1.95;;
55300;SDS011;58302;51.446;-2.000;2023-12-29T10:59:03;4.18;;;2.67;;
55300;SDS011;58302;51.446;-2.000;2023-12-29T11:01:33;4.22;;;2.00;;
55300;SDS011;58302;51.446;-2.000;2023-12-29T11:04:01;7.45;;;3.67;;
55300;SDS011;58302;51.446;-2.000;2023-12-29T11:06:29;4.40;;;1.60;;
55300;SDS011;58302;51.446;-2.000;2023-12-29T11:08:55;1.35;;;1.00;;
55300;SDS011;58302;51.446;-2.000;2023-12-29T11:11:22;3.05;;;1.10;;
55300;SDS011;58302;51.446;-2.000;2023-12-29T11:13:49;3.05;;;1.63;;
55300;SDS011;58302;51.446;-2.000;2023-12-29T11:16:15;4.55;;;1.48;;
55300;SDS011;58302;51.446;-2.000;2023-12-29T11:18:43;0.57;;;0.57;;
55300;SDS011;58302;51.446;-2.000;2023-12-29T11:21:10;3.40;;;1.65;;
55300;SDS011;58302;51.446;-2.000;2023-12-29T11:23:37;2.10;;;1.10;;
55300;SDS011;58302;51.446;-2.000;2023-12-29T11:26:04;1.17;;;0.63;;
55300;SDS011;58302;51.446;-2.000;2023-12-29T11:28:30;2.40;;;1.40;;
55300;SDS011;58302;51.446;-2.000;2023-12-29T11:30:56;3.00;;;1.75;;
55300;SDS011;58302;51.446;-2.000;2023-12-29T11:33:48;2.58;;;0.93;;
55300;SDS011;58302;51.446;-2.000;2023-12-29T11:36:22;3.00;;;0.90;;
55300;SDS011;58302;51.446;-2.000;2023-12-29T11:38:56;3.35;;;0.93;;
55300;SDS011;58302;51.446;-2.000;2023-12-29T11:41:39;3.75;;;0.90;;
55300;SDS011;58302;51.446;-2.000;2023-12-29T11:44:07;0.80;;;0.43;;
55300;SDS011;58302;51.446;-2.000;2023-12-29T11:49:03;2.47;;;1.20;;
55300;SDS011;58302;51.446;-2.000;2023-12-29T11:51:34;2.85;;;0.73;;
55300;SDS011;58302;51.446;-2.000;2023-12-29T11:54:08;0.80;;;0.40;;
55300;SDS011;58302;51.446;-2.000;2023-12-29T11:56:35;15.27;;;1.20;;
55300;SDS011;58302;51.446;-2.000;2023-12-29T11:59:21;1.98;;;0.73;;
55300;SDS011;58302;51.446;-2.000;2023-12-29T12:01:52;0.95;;;0.60;;
55300;SDS011;58302;51.446;-2.000;2023-12-29T12:07:13;3.60;;;0.77;;
55300;SDS011;58302;51.446;-2.000;2023-12-29T12:09:41;0.90;;;0.32;;
55300;SDS011;58302;51.446;-2.000;2023-12-29T12:12:07;1.60;;;0.55;;
55300;SDS011;58302;51.446;-2.000;2023-12-29T12:17:26;2.45;;;0.43;;
55300;SDS011;58302;51.446;-2.000;2023-12-29T12:19:55;1.73;;;0.60;;
55300;SDS011;58302;51.446;-2.000;2023-12-29T12:22:23;0.80;;;0.52;;
55300;SDS011;58302;51.446;-2.000;2023-12-29T12:25:00;1.00;;;0.68;;
55300;SDS011;58302;51.446;-2.000;2023-12-29T12:27:27;1.88;;;0.80;;
55300;SDS011;58302;51.446;-2.000;2023-12-29T12:29:54;0.88;;;0.55;;
55300;SDS011;58302;51.446;-2.000;2023-12-29T12:32:28;1.90;;;0.70;;
55300;SDS011;58302;51.446;-2.000;2023-12-29T12:34:56;1.88;;;0.85;;
55300;SDS011;58302;51.446;-2.000;2023-12-29T12:37:23;3.63;;;0.60;;
55300;SDS011;58302;51.446;-2.000;2023-12-29T12:39:50;0.68;;;0.40;;
55300;SDS011;58302;51.446;-2.000;2023-12-29T12:42:18;1.52;;;0.60;;
55300;SDS011;58302;51.446;-2.000;2023-12-29T12:47:44;1.05;;;0.60;;
55300;SDS011;58302;51.446;-2.000;2023-12-29T12:50:15;1.60;;;0.50;;
55300;SDS011;58302;51.446;-2.000;2023-12-29T12:52:42;1.95;;;0.60;;
55300;SDS011;58302;51.446;-2.000;2023-12-29T12:55:08;0.80;;;0.40;;
55300;SDS011;58302;51.446;-2.000;2023-12-29T12:57:36;1.40;;;0.77;;
55300;SDS011;58302;51.446;-2.000;2023-12-29T13:00:03;1.95;;;0.43;;
55300;SDS011;58302;51.446;-2.000;2023-12-29T13:02:31;1.90;;;0.45;;
55300;SDS011;58302;51.446;-2.000;2023-12-29T13:04:59;0.52;;;0.20;;
55300;SDS011;58302;51.446;-2.000;2023-12-29T13:07:25;3.03;;;0.68;;
55300;SDS011;58302;51.446;-2.000;2023-12-29T13:09:51;1.08;;;0.45;;
55300;SDS011;58302;51.446;-2.000;2023-12-29T13:12:19;1.65;;;0.82;;
55300;SDS011;58302;51.446;-2.000;2023-12-29T13:14:46;3.60;;;0.93;;
55300;SDS011;58302;51.446;-2.000;2023-12-29T13:17:13;1.73;;;0.60;;
55300;SDS011;58302;51.446;-2.000;2023-12-29T13:19:42;2.55;;;1.00;;
55300;SDS011;58302;51.446;-2.000;2023-12-29T13:22:12;2.67;;;1.08;;
55300;SDS011;58302;51.446;-2.000;2023-12-29T13:24:45;1.50;;;0.70;;
55300;SDS011;58302;51.446;-2.000;2023-12-29T13:27:11;2.70;;;1.13;;
55300;SDS011;58302;51.446;-2.000;2023-12-29T13:29:39;1.38;;;0.82;;
55300;SDS011;58302;51.446;-2.000;2023-12-29T13:32:10;0.88;;;0.75;;
55300;SDS011;58302;51.446;-2.000;2023-12-29T13:34:48;1.25;;;0.73;;
55300;SDS011;58302;51.446;-2.000;2023-12-29T13:42:43;5.18;;;1.00;;
55300;SDS011;58302;51.446;-2.000;2023-12-29T13:45:13;2.83;;;0.90;;
55300;SDS011;58302;51.446;-2.000;2023-12-29T13:47:41;1.90;;;0.85;;
55300;SDS011;58302;51.446;-2.000;2023-12-29T13:50:11;6.32;;;1.58;;
55300;SDS011;58302;51.446;-2.000;2023-12-29T13:52:37;1.33;;;0.68;;
55300;SDS011;58302;51.446;-2.000;2023-12-29T13:55:04;1.50;;;0.80;;
55300;SDS011;58302;51.446;-2.000;2023-12-29T13:57:32;6.15;;;0.90;;
55300;SDS011;58302;51.446;-2.000;2023-12-29T14:02:48;3.75;;;0.88;;
55300;SDS011;58302;51.446;-2.000;2023-12-29T14:07:59;5.55;;;1.30;;
55300;SDS011;58302;51.446;-2.000;2023-12-29T14:10:33;3.63;;;1.00;;
55300;SDS011;58302;51.446;-2.000;2023-12-29T14:13:04;2.65;;;1.40;;
55300;SDS011;58302;51.446;-2.000;2023-12-29T14:15:34;1.60;;;0.55;;
55300;SDS011;58302;51.446;-2.000;2023-12-29T14:20:48;4.20;;;1.85;;
55300;SDS011;58302;51.446;-2.000;2023-12-29T14:23:14;0.88;;;0.80;;
55300;SDS011;58302;51.446;-2.000;2023-12-29T14:25:44;3.33;;;1.25;;
55300;SDS011;58302;51.446;-2.000;2023-12-29T14:28:17;2.75;;;1.17;;
55300;SDS011;58302;51.446;-2.000;2023-12-29T14:30:44;5.55;;;2.20;;
55300;SDS011;58302;51.446;-2.000;2023-12-29T14:33:11;3.63;;;1.10;;
55300;SDS011;58302;51.446;-2.000;2023-12-29T14:35:37;3.95;;;1.15;;
55300;SDS011;58302;51.446;-2.000;2023-12-29T14:38:03;1.83;;;1.08;;
55300;SDS011;58302;51.446;-2.000;2023-12-29T14:40:29;2.60;;;0.88;;
55300;SDS011;58302;51.446;-2.000;2023-12-29T14:42:55;2.97;;;1.50;;
55300;SDS011;58302;51.446;-2.000;2023-12-29T14:45:22;2.47;;;1.00;;
55300;SDS011;58302;51.446;-2.000;2023-12-29T14:47:48;4.45;;;1.10;;
55300;SDS011;58302;51.446;-2.000;2023-12-29T14:50:15;2.25;;;0.80;;
55300;SDS011;58302;51.446;-2.000;2023-12-29T14:52:41;3.55;;;1.02;;
55300;SDS011;58302;51.446;-2.000;2023-12-29T14:55:08;3.97;;;1.70;;
55300;SDS011;58302;51.446;-2.000;2023-12-29T14:57:34;1.50;;;0.75;;
55300;SDS011;58302;51.446;-2.000;2023-12-29T15:00:00;1.98;;;1.00;;
55300;SDS011;58302;51.446;-2.000;2023-12-29T15:02:27;6.00;;;1.85;;
55300;SDS011;58302;51.446;-2.000;2023-12-29T15:04:53;4.00;;;1.30;;
55300;SDS011;58302;51.446;-2.000;2023-12-29T15:07:18;5.18;;;1.60;;